createdAt,value
2023-05-09T00:00:58.172Z,99.99
2023-05-09T00:26:39.166Z,99.99
2023-05-09T00:27:38.206Z,99.99
2023-05-09T00:40:39.396Z,99.99
2023-05-09T00:41:39.317Z,99.99
2023-05-09T00:42:39.359Z,99.99
2023-05-09T00:43:39.365Z,99.99
2023-05-09T00:44:39.123Z,99.99
2023-05-09T00:47:39.679Z,99.99
2023-05-09T00:48:39.117Z,99.99
2023-05-09T00:49:38.938Z,99.99
2023-05-09T00:50:38.855Z,99.99
2023-05-09T00:51:38.772Z,99.99
2023-05-09T00:54:38.537Z,99.99
2023-05-09T00:56:38.384Z,99.99
2023-05-09T00:58:38.105Z,99.99
2023-05-09T00:59:39.211Z,99.99
2023-05-09T01:01:38.246Z,99.99
2023-05-09T01:03:38.339Z,99.99
2023-05-09T01:04:37.961Z,99.99
2023-05-09T01:05:37.474Z,99.99
2023-05-09T01:07:37.570Z,99.99
2023-05-09T01:08:37.444Z,99.99
2023-05-09T01:09:38.264Z,99.99
2023-05-09T01:11:37.410Z,99.99
2023-05-09T01:13:38.173Z,99.99
2023-05-09T01:15:37.166Z,99.99
2023-05-09T01:20:36.313Z,99.99
2023-05-09T01:23:36.096Z,99.99
2023-05-09T01:24:35.990Z,99.99
2023-05-09T01:27:35.725Z,99.99
2023-05-09T01:29:23.125Z,99.99
2023-05-09T01:30:23.048Z,99.99
2023-05-09T01:31:23.142Z,99.99
2023-05-09T01:32:22.947Z,99.99
2023-05-09T01:33:22.813Z,99.99
2023-05-09T01:34:22.739Z,99.99
2023-05-09T01:35:22.661Z,99.99
2023-05-09T01:38:48.213Z,99.99
2023-05-09T01:39:48.135Z,99.99
2023-05-09T01:40:48.059Z,99.99
2023-05-09T01:41:47.977Z,99.99
2023-05-09T01:42:47.910Z,99.99
2023-05-09T01:43:47.833Z,99.99
2023-05-09T01:44:47.751Z,99.99
2023-05-09T01:45:47.665Z,99.99
2023-05-09T01:46:47.953Z,99.99
2023-05-09T01:47:47.532Z,99.99
2023-05-09T01:48:47.465Z,99.99
2023-05-09T01:49:47.350Z,99.99
2023-05-09T01:50:47.315Z,99.99
2023-05-09T01:51:47.190Z,99.99
2023-05-09T01:52:47.316Z,99.99
2023-05-09T02:07:23.718Z,99.99
2023-05-09T02:08:23.521Z,99.99
2023-05-09T02:09:23.448Z,99.99
2023-05-09T02:10:23.369Z,99.99
2023-05-09T02:11:23.349Z,99.99
2023-05-09T02:12:23.263Z,99.99
2023-05-09T02:13:23.281Z,99.99
2023-05-09T02:14:23.061Z,99.99
2023-05-09T02:15:22.980Z,99.99
2023-05-09T02:16:22.923Z,99.99
2023-05-09T02:17:22.816Z,99.99
2023-05-09T02:18:22.742Z,99.99
2023-05-09T02:19:22.658Z,99.99
2023-05-09T02:20:22.580Z,99.99
2023-05-09T02:21:22.505Z,99.99
2023-05-09T02:22:22.638Z,99.99
2023-05-09T02:23:22.675Z,99.99
2023-05-09T02:24:22.463Z,99.99
2023-05-09T02:25:22.217Z,99.99
2023-05-09T02:26:22.427Z,99.99
2023-05-09T02:27:22.030Z,99.99
2023-05-09T02:28:21.945Z,99.99
2023-05-09T02:29:22.119Z,99.99
2023-05-09T02:30:21.793Z,99.99
2023-05-09T02:31:21.720Z,99.99
2023-05-09T02:32:21.633Z,99.99
2023-05-09T02:33:21.754Z,99.99
2023-05-09T02:34:21.476Z,99.99
2023-05-09T02:35:21.636Z,99.99
2023-05-09T02:36:21.360Z,99.99
2023-05-09T02:37:21.256Z,99.99
2023-05-09T02:38:21.370Z,99.99
2023-05-09T02:39:21.287Z,99.99
2023-05-09T02:40:21.332Z,99.99
2023-05-09T02:41:20.969Z,99.99
2023-05-09T02:42:20.858Z,99.99
2023-05-09T02:43:20.798Z,99.99
2023-05-09T02:44:20.920Z,99.99
2023-05-09T02:45:20.855Z,99.99
2023-05-09T02:51:20.138Z,99.99
2023-05-09T03:52:15.353Z,99.99
2023-05-09T03:53:15.278Z,99.99
2023-05-09T03:54:15.205Z,99.99
2023-05-09T03:55:15.353Z,99.99
2023-05-09T03:56:15.181Z,99.99
2023-05-09T03:57:14.967Z,99.99
2023-05-09T03:58:14.885Z,99.99
2023-05-09T03:59:14.876Z,99.99
2023-05-09T04:00:14.735Z,99.99
2023-05-09T04:01:14.652Z,99.99
2023-05-09T04:02:14.639Z,99.99
2023-05-09T04:03:14.568Z,99.99
2023-05-09T04:04:14.434Z,99.99
2023-05-09T04:05:14.555Z,99.99
2023-05-09T04:06:14.261Z,99.99
2023-05-09T04:07:14.578Z,99.99
2023-05-09T04:08:14.121Z,99.99
2023-05-09T04:09:14.024Z,99.99
2023-05-09T04:10:13.948Z,99.99
2023-05-09T04:11:13.869Z,99.99
2023-05-09T04:12:13.912Z,99.99
2023-05-09T04:13:13.729Z,99.99
2023-05-09T04:14:13.633Z,99.99
2023-05-09T04:15:13.899Z,99.99
2023-05-09T04:16:13.555Z,99.99
2023-05-09T04:17:13.399Z,99.99
2023-05-09T04:18:13.322Z,99.99
2023-05-09T04:19:13.245Z,99.99
2023-05-09T04:20:13.262Z,99.99
2023-05-09T04:21:13.084Z,99.99
2023-05-09T04:22:13.010Z,99.99
2023-05-09T04:23:15.584Z,99.99
2023-05-09T04:24:12.884Z,99.99
2023-05-09T04:25:13.393Z,99.99
2023-05-09T04:26:13.336Z,99.99
2023-05-09T04:27:12.654Z,99.99
2023-05-09T04:28:13.210Z,99.99
2023-05-09T04:31:13.097Z,99.99
2023-05-09T04:33:12.488Z,99.99
2023-05-09T04:47:22.477Z,99.99
2023-05-09T04:48:22.248Z,99.99
2023-05-09T04:49:22.312Z,99.99
2023-05-09T04:50:22.093Z,99.99
2023-05-09T04:51:22.005Z,99.99
2023-05-09T04:52:21.928Z,99.99
2023-05-09T04:53:21.873Z,99.99
2023-05-09T04:54:21.780Z,99.99
2023-05-09T04:55:21.692Z,99.99
2023-05-09T04:56:21.619Z,99.99
2023-05-09T04:57:21.556Z,99.99
2023-05-09T04:58:21.461Z,99.99
2023-05-09T04:59:21.426Z,99.99
2023-05-09T05:00:21.346Z,99.99
2023-05-09T05:01:21.343Z,99.99
2023-05-09T05:02:21.210Z,99.99
2023-05-09T05:03:21.230Z,99.99
2023-05-09T05:04:21.021Z,99.99
2023-05-09T05:06:20.876Z,99.99
2023-05-09T05:07:20.796Z,99.99
2023-05-09T05:08:20.685Z,99.99
2023-05-09T05:09:20.807Z,99.99
2023-05-09T05:10:20.530Z,99.99
2023-05-09T05:11:20.510Z,99.99
2023-05-09T05:12:20.726Z,99.99
2023-05-09T05:13:20.450Z,99.99
2023-05-09T05:15:20.174Z,99.99
2023-05-09T05:16:20.161Z,99.99
2023-05-09T05:17:20.036Z,99.99
2023-05-09T05:18:19.910Z,99.99
2023-05-09T05:19:19.956Z,99.99
2023-05-09T05:20:19.788Z,99.99
2023-05-09T05:21:19.970Z,99.99
2023-05-09T05:22:19.928Z,99.99
2023-05-09T05:23:20.068Z,99.99
2023-05-09T05:24:19.459Z,99.99
2023-05-09T05:25:19.396Z,99.99
2023-05-09T05:26:19.325Z,99.99
2023-05-09T05:27:19.255Z,99.99
2023-05-09T05:28:19.134Z,99.99
2023-05-09T05:29:19.098Z,99.99
2023-05-09T05:30:18.983Z,99.99
2023-05-09T05:31:19.288Z,99.99
2023-05-09T05:33:19.144Z,99.99
2023-05-09T05:34:19.082Z,99.99
2023-05-09T05:35:18.859Z,99.99
2023-05-09T05:36:18.557Z,99.99
2023-05-09T05:37:18.890Z,99.99
2023-05-09T05:38:18.403Z,99.99
2023-05-09T05:39:18.630Z,99.99
2023-05-09T05:40:18.420Z,99.99
2023-05-09T05:41:18.130Z,99.99
2023-05-09T05:42:18.511Z,99.99
2023-05-09T05:43:18.181Z,99.99
2023-05-09T05:44:17.910Z,99.99
2023-05-09T05:45:18.107Z,99.99
2023-05-09T05:46:17.862Z,99.99
2023-05-09T05:47:17.671Z,99.99
2023-05-09T05:48:17.627Z,99.99
2023-05-09T05:49:17.556Z,99.99
2023-05-09T05:50:18.389Z,99.99
2023-05-09T05:51:17.493Z,99.99
2023-05-09T05:52:17.328Z,99.99
2023-05-09T05:56:16.978Z,99.99
2023-05-09T05:57:16.902Z,99.99
2023-05-09T05:58:16.822Z,99.99
2023-05-09T06:00:39.255Z,99.99
2023-05-09T06:01:39.258Z,99.99
2023-05-09T06:02:39.212Z,99.99
2023-05-09T06:03:39.132Z,99.99
2023-05-09T06:04:38.949Z,99.99
2023-05-09T06:05:39.075Z,99.99
2023-05-09T06:06:40.271Z,99.99
2023-05-09T06:08:38.853Z,99.99
2023-05-09T06:09:38.574Z,99.99
2023-05-09T06:10:38.498Z,99.99
2023-05-09T06:11:38.449Z,99.99
2023-05-09T06:12:38.355Z,99.99
2023-05-09T06:13:38.268Z,99.99
2023-05-09T06:14:38.219Z,99.99
2023-05-09T06:15:38.115Z,99.99
2023-05-09T06:16:38.053Z,99.99
2023-05-09T06:17:38.090Z,99.99
2023-05-09T06:18:37.908Z,99.99
2023-05-09T06:19:37.867Z,99.99
2023-05-09T06:20:38.122Z,99.99
2023-05-09T06:22:37.746Z,99.99
2023-05-09T06:23:40.612Z,99.99
2023-05-09T06:26:37.514Z,99.99
2023-05-09T06:27:38.203Z,99.99
2023-05-09T06:28:37.209Z,99.99
2023-05-09T06:30:37.314Z,99.99
2023-05-09T06:32:37.083Z,99.99
2023-05-09T06:33:36.797Z,99.99
2023-05-09T06:34:37.014Z,99.99
2023-05-09T06:36:36.566Z,99.99
2023-05-09T06:38:36.531Z,99.99
2023-05-09T06:42:36.314Z,99.99
2023-05-09T06:45:36.147Z,99.99
2023-05-09T06:47:53.510Z,99.99
2023-05-09T06:48:53.397Z,99.99
2023-05-09T06:49:53.607Z,99.99
2023-05-09T06:50:53.229Z,99.99
2023-05-09T06:51:53.167Z,99.99
2023-05-09T06:52:53.096Z,99.99
2023-05-09T06:53:53.125Z,99.99
2023-05-09T06:54:52.925Z,99.99
2023-05-09T06:55:52.853Z,99.99
2023-05-09T06:56:52.779Z,99.99
2023-05-09T06:57:52.705Z,99.99
2023-05-09T06:58:52.632Z,99.99
2023-05-09T06:59:52.566Z,99.99
2023-05-09T07:00:52.474Z,99.99
2023-05-09T07:01:52.452Z,99.99
2023-05-09T07:02:52.368Z,99.99
2023-05-09T07:03:52.281Z,99.99
2023-05-09T07:04:52.222Z,99.99
2023-05-09T07:05:52.104Z,99.99
2023-05-09T07:06:52.088Z,99.99
2023-05-09T07:07:51.962Z,99.99
2023-05-09T07:08:51.878Z,99.99
2023-05-09T07:09:55.222Z,99.99
2023-05-09T07:10:51.926Z,99.99
2023-05-09T07:11:51.654Z,99.99
2023-05-09T07:12:51.604Z,99.99
2023-05-09T07:13:51.502Z,99.99
2023-05-09T07:14:51.426Z,99.99
2023-05-09T07:15:51.384Z,99.99
2023-05-09T07:16:51.314Z,99.99
2023-05-09T07:44:21.424Z,99.99
2023-05-09T07:45:23.690Z,99.99
2023-05-09T07:46:21.168Z,99.99
2023-05-09T07:53:29.021Z,99.99
2023-05-09T08:04:22.562Z,99.99
2023-05-09T08:05:19.524Z,99.99
2023-05-09T08:06:19.448Z,99.99
2023-05-09T08:07:19.375Z,99.99
2023-05-09T08:08:19.294Z,99.99
2023-05-09T08:09:19.227Z,99.99
2023-05-09T08:10:19.147Z,99.99
2023-05-09T08:11:19.073Z,99.99
2023-05-09T08:12:19.005Z,99.99
2023-05-09T08:13:19.036Z,99.99
2023-05-09T08:14:18.859Z,99.99
2023-05-09T08:15:18.778Z,99.99
2023-05-09T08:16:18.737Z,99.99
2023-05-09T08:17:18.634Z,99.99
2023-05-09T08:18:18.677Z,99.99
2023-05-09T08:19:18.840Z,99.99
2023-05-09T08:20:18.536Z,99.99
2023-05-09T08:21:19.671Z,99.99
2023-05-09T08:25:56.218Z,99.99
2023-05-09T08:26:56.447Z,99.99
2023-05-09T08:28:55.991Z,99.99
2023-05-09T08:29:55.911Z,99.99
2023-05-09T08:30:56.071Z,99.99
2023-05-09T08:31:55.791Z,99.99
2023-05-09T08:32:55.976Z,99.99
2023-05-09T08:33:55.630Z,99.99
2023-05-09T08:34:55.505Z,99.99
2023-05-09T08:35:55.546Z,99.99
2023-05-09T08:39:55.154Z,99.99
2023-05-09T08:40:55.067Z,99.99
2023-05-09T08:41:54.984Z,99.99
2023-05-09T08:42:54.916Z,99.99
2023-05-09T08:43:54.838Z,99.99
2023-05-09T08:44:54.768Z,99.99
2023-05-09T08:45:54.688Z,99.99
2023-05-09T08:46:54.747Z,99.99
2023-05-09T08:47:54.588Z,99.99
2023-05-09T08:48:55.883Z,99.99
2023-05-09T08:49:54.427Z,99.99
2023-05-09T08:50:54.624Z,99.99
2023-05-09T08:51:54.357Z,99.99
2023-05-09T08:52:54.612Z,99.99
2023-05-09T08:54:54.021Z,99.99
2023-05-09T08:55:54.196Z,99.99
2023-05-09T08:56:53.911Z,99.99
2023-05-09T08:57:54.039Z,99.99
2023-05-09T08:58:53.727Z,99.99
2023-05-09T08:59:53.685Z,99.99
2023-05-09T09:01:53.553Z,99.99
2023-05-09T09:02:53.732Z,99.99
2023-05-09T09:03:53.565Z,99.99
2023-05-09T09:04:53.322Z,99.99
2023-05-09T09:05:53.214Z,99.99
2023-05-09T09:06:53.165Z,99.99
2023-05-09T09:07:53.173Z,99.99
2023-05-09T09:08:52.984Z,99.99
2023-05-09T09:09:52.911Z,99.99
2023-05-09T09:10:52.843Z,99.99
2023-05-09T09:11:52.763Z,99.99
2023-05-09T09:12:53.052Z,99.99
2023-05-09T09:13:52.634Z,99.99
2023-05-09T09:14:52.543Z,99.99
2023-05-09T09:15:52.473Z,99.99
2023-05-09T09:16:52.502Z,99.99
2023-05-09T09:17:52.324Z,99.99
2023-05-09T09:18:52.248Z,99.99
2023-05-09T09:19:52.172Z,99.99
2023-05-09T09:20:52.110Z,99.99
2023-05-09T09:21:52.225Z,99.99
2023-05-09T09:22:51.950Z,99.99
2023-05-09T09:23:51.999Z,99.99
2023-05-09T09:24:51.802Z,99.99
2023-05-09T09:25:51.730Z,99.99
2023-05-09T09:26:51.660Z,99.99
2023-05-09T09:27:51.588Z,99.99
2023-05-09T09:28:51.510Z,99.99
2023-05-09T09:29:51.435Z,99.99
2023-05-09T09:30:51.367Z,99.99
2023-05-09T09:31:51.479Z,99.99
2023-05-09T09:32:51.237Z,99.99
2023-05-09T09:33:51.160Z,99.99
2023-05-09T09:34:51.282Z,99.99
2023-05-09T09:35:51.022Z,99.99
2023-05-09T09:36:50.928Z,99.99
2023-05-09T09:37:50.855Z,99.99
2023-05-09T09:38:50.775Z,99.99
2023-05-09T09:39:50.873Z,99.99
2023-05-09T09:40:50.629Z,99.99
2023-05-09T09:41:50.555Z,99.99
2023-05-09T09:42:50.476Z,99.99
2023-05-09T09:43:50.408Z,99.99
2023-05-09T09:44:50.335Z,99.99
2023-05-09T09:45:50.311Z,99.99
2023-05-09T09:46:50.869Z,99.99
2023-05-09T09:47:50.159Z,99.99
2023-05-09T09:48:50.042Z,99.99
2023-05-09T09:49:49.986Z,99.99
2023-05-09T09:50:49.895Z,99.99
2023-05-09T09:58:49.473Z,99.99
2023-05-09T09:59:49.284Z,99.99
2023-05-09T10:00:49.160Z,99.99
2023-05-09T10:01:49.143Z,99.99
2023-05-09T10:02:49.063Z,99.99
2023-05-09T10:03:49.135Z,99.99
2023-05-09T10:04:48.873Z,99.99
2023-05-09T10:05:48.795Z,99.99
2023-05-09T10:19:56.995Z,99.99
2023-05-09T10:20:56.798Z,99.99
2023-05-09T10:21:56.726Z,99.99
2023-05-09T10:22:56.656Z,99.99
2023-05-09T10:23:56.585Z,99.99
2023-05-09T10:24:57.686Z,99.99
2023-05-09T10:25:56.443Z,99.99
2023-05-09T10:26:56.363Z,99.99
2023-05-09T10:27:56.442Z,99.99
2023-05-09T10:28:56.216Z,99.99
2023-05-09T10:29:56.143Z,99.99
2023-05-09T10:30:56.090Z,99.99
2023-05-09T10:31:56.021Z,99.99
2023-05-09T10:32:56.047Z,99.99
2023-05-09T10:34:38.335Z,99.99
2023-05-09T10:35:38.377Z,99.99
2023-05-09T10:36:38.193Z,99.99
2023-05-09T10:37:38.124Z,99.99
2023-05-09T10:38:38.049Z,99.99
2023-05-09T10:39:37.968Z,99.99
2023-05-09T10:40:37.898Z,99.99
2023-05-09T10:41:37.832Z,99.99
2023-05-09T10:42:37.749Z,99.99
2023-05-09T10:43:37.679Z,99.99
2023-05-09T10:44:37.620Z,99.99
2023-05-09T10:45:37.530Z,99.99
2023-05-09T10:46:37.457Z,99.99
2023-05-09T10:47:37.427Z,99.99
2023-05-09T10:48:37.327Z,99.99
2023-05-09T10:49:37.555Z,99.99
2023-05-09T10:50:37.163Z,99.99
2023-05-09T10:51:37.217Z,99.99
2023-05-09T10:52:37.021Z,99.99
2023-05-09T10:53:36.948Z,99.99
2023-05-09T10:54:37.220Z,99.99
2023-05-09T10:55:36.800Z,99.99
2023-05-09T10:56:36.730Z,99.99
2023-05-09T10:57:36.679Z,99.99
2023-05-09T10:58:36.665Z,99.99
2023-05-09T10:59:36.584Z,99.99
2023-05-09T11:00:36.481Z,99.99
2023-05-09T11:01:36.417Z,99.99
2023-05-09T11:02:36.314Z,99.99
2023-05-09T11:03:36.333Z,99.99
2023-05-09T11:05:18.637Z,99.99
2023-05-09T11:06:18.561Z,99.99
2023-05-09T11:07:18.618Z,99.99
2023-05-09T11:08:18.415Z,99.99
2023-05-09T11:09:18.345Z,99.99
2023-05-09T11:10:18.281Z,99.99
2023-05-09T11:11:18.198Z,99.99
2023-05-09T11:12:18.127Z,99.99
2023-05-09T11:13:18.244Z,99.99
2023-05-09T11:14:17.980Z,99.99
2023-05-09T11:15:17.920Z,99.99
2023-05-09T11:16:17.873Z,99.99
2023-05-09T11:17:17.763Z,99.99
2023-05-09T11:18:18.925Z,99.99
2023-05-09T11:19:17.620Z,99.99
2023-05-09T11:20:17.894Z,99.99
2023-05-09T11:21:17.471Z,99.99
2023-05-09T11:22:17.403Z,99.99
2023-05-09T11:23:17.588Z,99.99
2023-05-09T11:24:17.260Z,99.99
2023-05-09T11:25:17.384Z,99.99
2023-05-09T11:26:17.117Z,99.99
2023-05-09T11:27:17.045Z,99.99
2023-05-09T11:28:16.970Z,99.99
2023-05-09T11:29:16.897Z,99.99
2023-05-09T11:30:16.901Z,99.99
2023-05-09T11:31:16.773Z,99.99
2023-05-09T11:32:16.734Z,99.99
2023-05-09T11:33:16.613Z,99.99
2023-05-09T11:34:16.536Z,99.99
2023-05-09T11:35:16.907Z,99.99
2023-05-09T11:36:16.394Z,99.99
2023-05-09T11:37:16.324Z,99.99
2023-05-09T11:38:16.256Z,99.99
2023-05-09T11:39:16.299Z,99.99
2023-05-09T11:40:16.172Z,99.99
2023-05-09T11:41:16.074Z,99.99
2023-05-09T11:42:15.964Z,99.99
2023-05-09T11:43:16.042Z,99.99
2023-05-09T11:44:15.827Z,99.99
2023-05-09T11:45:15.900Z,99.99
2023-05-09T11:46:15.722Z,99.40
2023-05-09T11:47:15.605Z,99.50
2023-05-09T11:48:15.536Z,98.44
2023-05-09T11:49:15.469Z,98.97
2023-05-09T11:50:15.470Z,99.99
2023-05-09T11:51:15.336Z,98.10
2023-05-09T11:52:15.352Z,98.39
2023-05-09T11:53:15.184Z,96.46
2023-05-09T11:54:15.281Z,96.22
2023-05-09T11:55:15.417Z,96.27
2023-05-09T11:56:14.982Z,96.17
2023-05-09T11:57:14.909Z,95.69
2023-05-09T11:58:14.825Z,95.98
2023-05-09T11:59:14.804Z,95.98
2023-05-09T12:00:14.681Z,95.64
2023-05-09T12:01:14.623Z,96.27
2023-05-09T12:02:14.585Z,98.39
2023-05-09T12:03:14.560Z,98.29
2023-05-09T12:04:14.474Z,97.81
2023-05-09T12:05:14.570Z,98.25
2023-05-09T12:06:14.259Z,98.15
2023-05-09T12:07:14.190Z,97.33
2023-05-09T12:08:14.124Z,95.83
2023-05-09T12:09:14.047Z,95.98
2023-05-09T12:10:13.976Z,94.00
2023-05-09T12:11:14.034Z,95.93
2023-05-09T12:12:13.849Z,94.48
2023-05-09T12:13:13.827Z,95.16
2023-05-09T12:14:13.714Z,98.73
2023-05-09T12:15:14.043Z,96.17
2023-05-09T12:16:13.558Z,96.08
2023-05-09T12:17:13.490Z,96.51
2023-05-09T12:18:13.431Z,97.38
2023-05-09T12:19:13.341Z,97.19
2023-05-09T12:20:13.284Z,97.33
2023-05-09T12:21:13.204Z,97.42
2023-05-09T12:22:13.130Z,99.99
2023-05-09T12:23:13.058Z,97.33
2023-05-09T12:24:12.986Z,98.20
2023-05-09T12:25:12.982Z,96.75
2023-05-09T12:26:12.846Z,96.51
2023-05-09T12:27:12.901Z,97.38
2023-05-09T12:28:12.702Z,97.67
2023-05-09T12:29:12.783Z,97.47
2023-05-09T12:30:12.616Z,96.12
2023-05-09T12:31:12.515Z,93.90
2023-05-09T12:32:12.426Z,92.80
2023-05-09T12:33:12.401Z,94.68
2023-05-09T12:34:12.282Z,94.48
2023-05-09T12:35:12.495Z,93.52
2023-05-09T12:36:12.139Z,93.32
2023-05-09T12:37:12.068Z,91.88
2023-05-09T12:38:12.052Z,91.49
2023-05-09T12:39:11.931Z,93.95
2023-05-09T12:40:11.867Z,92.74
2023-05-09T12:41:26.094Z,93.51
2023-05-09T12:44:11.778Z,89.70
2023-05-09T12:45:11.820Z,91.15
2023-05-09T12:46:11.440Z,92.55
2023-05-09T12:47:11.508Z,91.53
2023-05-09T12:48:11.328Z,89.83
2023-05-09T12:51:36.902Z,85.33
2023-05-09T12:52:43.952Z,85.96
2023-05-09T12:53:36.825Z,84.66
2023-05-09T12:54:37.533Z,86.49
2023-05-09T12:55:36.825Z,87.41
2023-05-09T12:56:36.572Z,85.57
2023-05-09T12:57:36.491Z,84.99
2023-05-09T12:58:36.416Z,85.52
2023-05-09T12:59:36.476Z,89.39
2023-05-09T13:00:36.299Z,86.54
2023-05-09T13:01:36.221Z,83.49
2023-05-09T13:02:36.402Z,83.11
2023-05-09T13:03:36.348Z,84.55
2023-05-09T13:04:36.013Z,83.38
2023-05-09T13:05:35.964Z,82.72
2023-05-09T13:06:36.053Z,84.32
2023-05-09T13:07:38.437Z,86.93
2023-05-09T13:10:09.287Z,87.15
2023-05-09T13:11:15.652Z,89.95
2023-05-09T13:12:08.144Z,90.09
2023-05-09T13:13:08.110Z,89.70
2023-05-09T13:14:08.222Z,88.87
2023-05-09T13:15:08.075Z,85.69
2023-05-09T13:16:09.524Z,87.27
2023-05-09T13:17:07.862Z,87.23
2023-05-09T13:18:07.752Z,84.66
2023-05-09T13:19:07.677Z,84.71
2023-05-09T13:20:07.648Z,84.90
2023-05-09T13:21:07.526Z,85.83
2023-05-09T13:22:07.562Z,84.67
2023-05-09T13:23:07.390Z,85.74
2023-05-09T13:24:07.329Z,87.13
2023-05-09T13:25:07.260Z,86.21
2023-05-09T13:26:07.188Z,86.06
2023-05-09T13:27:07.118Z,84.11
2023-05-09T13:28:07.050Z,82.72
2023-05-09T13:29:06.990Z,81.98
2023-05-09T13:30:06.914Z,82.12
2023-05-09T13:31:07.109Z,81.15
2023-05-09T13:32:06.929Z,79.10
2023-05-09T13:33:24.033Z,78.23
2023-05-09T13:34:06.650Z,79.88
2023-05-09T13:35:06.752Z,79.39
2023-05-09T13:36:06.517Z,79.82
2023-05-09T13:37:06.444Z,78.11
2023-05-09T13:38:07.593Z,78.79
2023-05-09T13:39:06.326Z,77.11
2023-05-09T13:40:06.250Z,76.19
2023-05-09T13:41:06.185Z,76.97
2023-05-09T13:42:07.129Z,77.49
2023-05-09T13:43:59.750Z,76.75
2023-05-09T13:44:58.677Z,77.45
2023-05-09T13:45:58.643Z,78.15
2023-05-09T13:46:59.677Z,79.66
2023-05-09T13:47:58.516Z,80.74
2023-05-09T13:48:58.415Z,81.23
2023-05-09T13:49:58.348Z,80.99
2023-05-09T13:50:58.280Z,81.77
2023-05-09T13:51:58.216Z,82.25
2023-05-09T13:53:01.789Z,83.55
2023-05-09T13:54:15.523Z,81.65
2023-05-09T13:54:58.016Z,82.60
2023-05-09T13:55:57.949Z,79.70
2023-05-09T13:56:57.885Z,79.55
2023-05-09T13:57:57.820Z,78.44
2023-05-09T13:58:57.750Z,78.25
2023-05-09T13:59:57.704Z,79.85
2023-05-09T14:00:57.660Z,80.67
2023-05-09T14:01:57.623Z,79.45
2023-05-09T14:02:57.696Z,78.92
2023-05-09T14:03:57.499Z,79.76
2023-05-09T14:04:57.358Z,80.73
2023-05-09T14:05:57.299Z,80.34
2023-05-09T14:06:57.225Z,80.59
2023-05-09T14:15:32.355Z,84.06
2023-05-09T14:16:32.456Z,87.63
2023-05-09T14:17:32.232Z,88.31
2023-05-09T14:18:32.260Z,87.15
2023-05-09T14:20:49.585Z,88.35
2023-05-09T14:21:49.528Z,87.87
2023-05-09T14:22:49.457Z,85.41
2023-05-09T14:25:36.815Z,86.38
2023-05-09T14:26:36.736Z,85.22
2023-05-09T14:27:36.664Z,86.86
2023-05-09T14:28:36.593Z,89.65
2023-05-09T14:29:37.328Z,87.24
2023-05-09T14:30:36.450Z,85.50
2023-05-09T14:31:36.396Z,88.69
2023-05-09T14:32:36.317Z,88.79
2023-05-09T14:33:36.410Z,86.86
2023-05-09T14:36:21.206Z,87.15
2023-05-09T14:38:06.021Z,87.68
2023-05-09T14:41:05.939Z,86.33
2023-05-09T14:42:05.867Z,87.20
2023-05-09T14:43:05.884Z,87.68
2023-05-09T14:44:05.726Z,86.43
2023-05-09T14:45:05.656Z,89.42
2023-05-09T14:47:05.585Z,88.26
2023-05-09T14:48:51.066Z,89.57
2023-05-09T14:49:47.852Z,90.24
2023-05-09T14:50:47.779Z,90.24
2023-05-09T14:51:47.708Z,89.67
2023-05-09T14:53:34.246Z,87.93
2023-05-09T14:54:30.049Z,89.76
2023-05-09T14:55:29.994Z,88.51
2023-05-09T14:56:29.906Z,90.72
2023-05-09T14:57:30.034Z,90.24
2023-05-09T14:58:29.762Z,87.35
2023-05-09T14:59:29.722Z,86.58
2023-05-09T15:00:29.873Z,86.91
2023-05-09T15:01:29.615Z,91.54
2023-05-09T15:02:29.536Z,88.75
2023-05-09T15:04:22.004Z,88.93
2023-05-09T15:05:21.831Z,87.49
2023-05-09T15:06:21.750Z,87.40
2023-05-09T15:07:21.675Z,89.32
2023-05-09T15:08:21.604Z,89.86
2023-05-09T15:09:21.596Z,90.34
2023-05-09T15:10:21.873Z,89.57
2023-05-09T15:11:21.388Z,91.50
2023-05-09T15:12:21.314Z,90.34
2023-05-09T15:13:21.307Z,90.34
2023-05-09T15:14:21.169Z,91.40
2023-05-09T15:15:21.133Z,91.20
2023-05-09T15:16:21.091Z,92.65
2023-05-09T15:17:21.003Z,95.26
2023-05-09T15:19:23.954Z,98.25
2023-05-09T15:20:20.769Z,99.99
2023-05-09T15:21:20.901Z,98.10
2023-05-09T15:22:20.633Z,97.33
2023-05-09T15:23:20.582Z,96.94
2023-05-09T15:24:20.452Z,97.42
2023-05-09T15:25:20.386Z,95.84
2023-05-09T15:26:20.298Z,94.97
2023-05-09T15:27:20.222Z,95.07
2023-05-09T15:28:20.151Z,95.55
2023-05-09T15:29:20.086Z,96.12
2023-05-09T15:31:22.945Z,95.64
2023-05-09T15:32:22.995Z,95.74
2023-05-09T15:33:22.774Z,98.63
2023-05-09T15:34:22.687Z,99.99
2023-05-09T15:35:22.651Z,99.99
2023-05-09T15:36:22.543Z,99.99
2023-05-09T15:37:22.472Z,99.99
2023-05-09T15:38:22.400Z,99.99
2023-05-09T15:39:22.322Z,99.99
2023-05-09T15:40:22.248Z,99.99
2023-05-09T15:41:22.176Z,99.99
2023-05-09T15:42:22.112Z,99.99
2023-05-09T15:43:22.039Z,99.99
2023-05-09T15:44:21.956Z,99.99
2023-05-09T15:45:21.884Z,99.99
2023-05-09T15:46:21.855Z,99.99
2023-05-09T15:47:21.844Z,99.99
2023-05-09T15:48:21.665Z,99.99
2023-05-09T15:49:21.622Z,99.99
2023-05-09T15:50:21.521Z,99.99
2023-05-09T15:51:21.572Z,99.99
2023-05-09T15:53:21.296Z,99.99
2023-05-09T15:54:27.694Z,99.99
2023-05-09T15:55:21.184Z,99.99
2023-05-09T15:56:21.078Z,99.99
2023-05-09T15:57:21.004Z,99.99
2023-05-09T15:58:21.128Z,99.99
2023-05-09T15:59:20.855Z,99.99
2023-05-09T16:00:20.784Z,99.99
2023-05-09T16:01:20.753Z,99.99
2023-05-09T16:02:20.671Z,99.99
2023-05-09T16:05:08.283Z,99.99
2023-05-09T16:06:07.910Z,99.99
2023-05-09T16:07:08.302Z,99.99
2023-05-09T16:08:07.757Z,99.99
2023-05-09T16:09:07.681Z,99.99
2023-05-09T16:10:07.619Z,99.99
2023-05-09T16:11:07.532Z,99.99
2023-05-09T16:12:07.474Z,99.99
2023-05-09T16:13:07.471Z,99.99
2023-05-09T16:14:07.314Z,99.99
2023-05-09T16:15:07.282Z,99.99
2023-05-09T16:16:07.295Z,99.99
2023-05-09T16:17:07.095Z,99.99
2023-05-09T16:18:07.011Z,99.99
2023-05-09T16:19:06.938Z,99.99
2023-05-09T16:20:06.864Z,99.99
2023-05-09T16:21:06.856Z,99.99
2023-05-09T16:22:06.724Z,99.99
2023-05-09T16:23:07.192Z,99.99
2023-05-09T16:24:06.578Z,99.99
2023-05-09T16:25:06.490Z,99.99
2023-05-09T16:26:06.417Z,99.99
2023-05-09T16:27:06.342Z,99.99
2023-05-09T16:28:06.263Z,99.99
2023-05-09T16:29:06.293Z,99.99
2023-05-09T16:30:06.124Z,99.99
2023-05-09T16:31:06.106Z,99.99
2023-05-09T16:32:05.980Z,99.99
2023-05-09T16:33:05.930Z,99.99
2023-05-09T16:34:05.816Z,99.99
2023-05-09T16:35:05.746Z,99.99
2023-05-09T16:36:05.670Z,99.99
2023-05-09T16:37:05.592Z,99.99
2023-05-09T16:38:05.521Z,99.99
2023-05-09T16:39:05.557Z,99.99
2023-05-09T16:40:05.382Z,99.99
2023-05-09T16:41:05.596Z,99.99
2023-05-09T16:42:05.220Z,99.99
2023-05-09T16:43:05.145Z,99.99
2023-05-09T16:44:05.072Z,99.99
2023-05-09T16:45:05.011Z,99.99
2023-05-09T16:46:05.002Z,99.99
2023-05-09T16:47:04.853Z,99.99
2023-05-09T16:48:04.810Z,99.99
2023-05-09T16:49:04.693Z,99.99
2023-05-09T16:50:04.823Z,99.99
2023-05-09T16:51:04.543Z,99.99
2023-05-09T16:52:04.465Z,99.99
2023-05-09T16:53:04.399Z,99.99
2023-05-09T16:54:04.320Z,99.99
2023-05-09T16:55:04.275Z,99.99
2023-05-09T16:56:04.247Z,99.99
2023-05-09T16:57:04.092Z,99.99
2023-05-09T16:58:04.016Z,99.99
2023-05-09T16:59:03.949Z,99.99
2023-05-09T17:00:03.870Z,99.99
2023-05-09T17:01:03.830Z,99.99
2023-05-09T17:02:03.717Z,99.99
2023-05-09T17:03:03.703Z,99.99
2023-05-09T17:04:03.586Z,99.99
2023-05-09T17:05:03.506Z,99.99
2023-05-09T17:06:03.409Z,99.99
2023-05-09T17:07:03.335Z,99.99
2023-05-09T17:08:03.256Z,99.99
2023-05-09T17:09:03.185Z,99.99
2023-05-09T17:11:29.377Z,99.99
2023-05-09T17:12:25.537Z,99.99
2023-05-09T17:13:25.507Z,99.99
2023-05-09T17:14:25.393Z,99.99
2023-05-09T17:15:25.515Z,99.99
2023-05-09T17:16:25.335Z,99.99
2023-05-09T17:17:25.204Z,99.99
2023-05-09T17:18:35.956Z,99.99
2023-05-09T17:19:25.013Z,99.99
2023-05-09T17:22:23.407Z,99.99
2023-05-09T17:23:22.577Z,99.99
2023-05-09T17:24:22.506Z,99.99
2023-05-09T17:25:22.426Z,99.99
2023-05-09T17:26:22.350Z,99.99
2023-05-09T17:27:22.402Z,99.99
2023-05-09T17:28:22.204Z,99.99
2023-05-09T17:29:22.273Z,99.99
2023-05-09T17:30:23.234Z,99.99
2023-05-09T17:31:22.047Z,99.99
2023-05-09T17:32:21.896Z,99.99
2023-05-09T17:33:21.844Z,99.99
2023-05-09T17:34:21.746Z,99.99
2023-05-09T17:35:21.667Z,99.99